Time;durP1;ratioP1;P1;durP2;ratioP2;P2;SDS_P1;SDS_P2;PMS_P1;PMS_P2;Temp;Humidity;BMP_temperature;BMP_pressure;BME280_temperature;BME280_humidity;BME280_pressure;Samples;Min_cycle;Max_cycle;Signal;HPM_P1;HPM_P2
2022/05/07 00:00:46;;;;;;;15.50;13.80;;;12.20;1.00;;;;;;5050608;28;20195;-61
2022/05/07 00:03:13;;;;;;;19.07;11.00;;;12.40;1.00;;;;;;5048146;28;20219;-60
2022/05/07 00:05:41;;;;;;;20.53;13.70;;;12.80;1.00;;;;;;5025145;28;20212;-60
2022/05/07 00:08:08;;;;;;;18.17;13.50;;;12.60;1.00;;;;;;5051707;28;20258;-61
2022/05/07 00:10:36;;;;;;;19.73;14.60;;;12.80;1.00;;;;;;5051222;28;20257;-61
2022/05/07 00:13:05;;;;;;;18.00;14.50;;;12.40;1.00;;;;;;5048887;28;20267;-58
2022/05/07 00:15:32;;;;;;;18.60;14.87;;;12.50;1.00;;;;;;5031203;28;20242;-60
2022/05/07 00:18:06;;;;;;;16.70;11.27;;;12.00;1.00;;;;;;5049652;28;20522;-59
2022/05/07 00:20:35;;;;;;;20.40;14.33;;;12.80;1.00;;;;;;5036468;28;20263;-60
2022/05/07 00:23:03;;;;;;;17.10;14.03;;;12.80;1.00;;;;;;5050513;28;20238;-61
2022/05/07 00:25:30;;;;;;;31.00;20.90;;;13.30;1.00;;;;;;5050385;28;20691;-61
2022/05/07 00:27:57;;;;;;;37.93;30.73;;;13.60;1.00;;;;;;5051970;28;20203;-59
2022/05/07 00:30:27;;;;;;;23.67;15.47;;;13.40;1.00;;;;;;5050947;28;20694;-60
2022/05/07 00:32:54;;;;;;;27.20;16.00;;;13.80;1.00;;;;;;5034103;28;20290;-61
2022/05/07 00:35:21;;;;;;;33.63;23.70;;;13.10;1.00;;;;;;5050914;28;20195;-64
2022/05/07 00:37:48;;;;;;;17.67;13.97;;;12.90;1.00;;;;;;5051249;28;20196;-60
2022/05/07 00:40:15;;;;;;;19.03;14.63;;;12.50;1.00;;;;;;5051581;28;20199;-61
2022/05/07 00:42:42;;;;;;;16.93;15.13;;;12.40;1.00;;;;;;5027618;28;20265;-61
2022/05/07 00:45:09;;;;;;;30.03;25.07;;;12.10;1.00;;;;;;5032443;28;20238;-61
2022/05/07 00:47:38;;;;;;;17.50;14.07;;;12.30;1.00;;;;;;5049173;28;20192;-60
2022/05/07 00:52:54;;;;;;;18.93;13.17;;;12.50;1.00;;;;;;5032154;28;20644;-61
2022/05/07 00:55:25;;;;;;;20.00;14.53;;;12.40;1.00;;;;;;5031601;28;20239;-61
2022/05/07 00:57:54;;;;;;;16.50;14.40;;;12.00;1.00;;;;;;5045186;28;20210;-61
2022/05/07 01:00:24;;;;;;;15.60;13.63;;;11.80;1.00;;;;;;5023504;28;20200;-60
2022/05/07 01:02:51;;;;;;;19.63;14.77;;;11.70;1.00;;;;;;5046170;28;20203;-60
2022/05/07 01:05:19;;;;;;;18.40;15.83;;;11.40;1.00;;;;;;5043402;28;20207;-63
2022/05/07 01:07:46;;;;;;;21.13;15.90;;;11.40;1.00;;;;;;5035826;28;20629;-59
2022/05/07 01:10:14;;;;;;;17.70;14.53;;;11.70;1.00;;;;;;5035786;28;20250;-60
2022/05/07 01:12:42;;;;;;;17.57;14.70;;;11.80;1.00;;;;;;5047671;28;20234;-59
2022/05/07 01:15:10;;;;;;;21.63;19.17;;;12.00;1.00;;;;;;5004530;28;20196;-59
2022/05/07 01:17:38;;;;;;;19.37;14.87;;;12.10;1.00;;;;;;5021732;28;20188;-59
2022/05/07 01:20:14;;;;;;;17.63;14.80;;;12.30;1.00;;;;;;5029984;28;20604;-59
2022/05/07 01:22:43;;;;;;;16.53;14.33;;;12.50;1.00;;;;;;5043694;28;20199;-59
2022/05/07 01:25:13;;;;;;;23.43;14.87;;;11.90;1.00;;;;;;5043552;28;20261;-59
2022/05/07 01:27:40;;;;;;;18.93;15.60;;;12.00;1.00;;;;;;5008814;28;20195;-60
2022/05/07 01:30:08;;;;;;;18.80;15.77;;;11.70;1.00;;;;;;5033106;28;20192;-58
2022/05/07 01:32:36;;;;;;;19.73;16.47;;;11.60;1.00;;;;;;5027937;28;20297;-60
2022/05/07 01:35:04;;;;;;;20.07;15.87;;;11.70;1.00;;;;;;5046746;28;20200;-60
2022/05/07 01:37:32;;;;;;;18.87;16.87;;;11.70;1.00;;;;;;5047238;28;20298;-59
2022/05/07 01:39:59;;;;;;;21.20;18.07;;;11.70;1.00;;;;;;5032225;28;20228;-59
2022/05/07 01:42:28;;;;;;;20.03;16.77;;;11.60;1.00;;;;;;5046134;28;20191;-58
2022/05/07 01:44:55;;;;;;;17.87;16.00;;;11.30;1.00;;;;;;5026917;28;20218;-60
2022/05/07 01:50:09;;;;;;;21.10;17.23;;;10.90;92.10;;;;;;5021656;28;20198;-60
2022/05/07 01:52:36;;;;;;;21.70;17.57;;;10.90;99.90;;;;;;5021071;28;20275;-60
2022/05/07 01:55:06;;;;;;;18.90;16.40;;;11.20;54.40;;;;;;5043756;28;20201;-59
2022/05/07 01:57:33;;;;;;;20.23;17.30;;;11.40;1.00;;;;;;5025873;28;21200;-59
2022/05/07 02:00:02;;;;;;;22.57;17.60;;;11.50;1.00;;;;;;5028962;28;20627;-59
2022/05/07 02:02:37;;;;;;;19.97;16.57;;;11.60;1.00;;;;;;5044100;28;20685;-59
2022/05/07 02:05:15;;;;;;;20.73;17.53;;;11.80;1.00;;;;;;5028088;28;20681;-58
2022/05/07 02:07:44;;;;;;;18.87;16.73;;;11.90;1.00;;;;;;5036475;28;20195;-60
2022/05/07 02:10:13;;;;;;;20.07;16.97;;;11.90;1.00;;;;;;5023563;28;20214;-58
2022/05/07 02:12:40;;;;;;;22.63;17.50;;;11.90;1.00;;;;;;5036208;28;20684;-59
2022/05/07 02:15:08;;;;;;;20.53;16.43;;;11.80;1.00;;;;;;5017781;28;20208;-58
2022/05/07 02:17:36;;;;;;;24.70;16.67;;;11.70;1.00;;;;;;5043389;28;20277;-59
2022/05/07 02:20:04;;;;;;;17.50;15.70;;;11.60;1.00;;;;;;5017911;28;20294;-58
2022/05/07 02:22:31;;;;;;;21.03;16.53;;;11.60;1.00;;;;;;5029193;28;20203;-59
2022/05/07 02:24:59;;;;;;;18.10;16.20;;;11.60;1.00;;;;;;5036685;28;20265;-58
2022/05/07 02:27:26;;;;;;;23.00;17.97;;;11.50;1.00;;;;;;5045292;28;20191;-59
2022/05/07 02:29:57;;;;;;;21.80;17.60;;;11.40;1.00;;;;;;5031227;28;20201;-59
2022/05/07 02:32:25;;;;;;;20.60;17.07;;;11.40;1.00;;;;;;5027945;28;20295;-58
2022/05/07 02:34:52;;;;;;;23.53;18.73;;;11.30;1.00;;;;;;5045652;28;20822;-60
2022/05/07 02:37:25;;;;;;;20.07;17.03;;;11.30;1.00;;;;;;5031551;28;20279;-60
2022/05/07 02:39:54;;;;;;;22.40;18.23;;;11.30;1.00;;;;;;5044967;28;20257;-59
2022/05/07 02:42:36;;;;;;;24.10;18.17;;;11.20;1.00;;;;;;5045484;28;20362;-60
2022/05/07 02:45:19;;;;;;;23.57;18.07;;;11.20;1.00;;;;;;5008434;28;20215;-59
2022/05/07 02:47:49;;;;;;;22.00;18.43;;;11.10;1.00;;;;;;5026337;28;20203;-61
2022/05/07 02:50:19;;;;;;;23.50;19.03;;;11.10;1.00;;;;;;5026014;28;20253;-60
2022/05/07 02:52:46;;;;;;;23.03;18.90;;;11.20;1.00;;;;;;5006714;28;20196;-60
2022/05/07 02:55:13;;;;;;;21.10;18.90;;;11.20;1.00;;;;;;5030746;28;20196;-60
2022/05/07 02:57:45;;;;;;;21.03;18.43;;;11.20;1.00;;;;;;5020591;28;20205;-60
2022/05/07 03:00:15;;;;;;;20.73;17.90;;;10.90;1.00;;;;;;5042506;28;20237;-59
2022/05/07 03:02:42;;;;;;;22.67;19.50;;;10.90;10.40;;;;;;5025218;28;20212;-60
2022/05/07 03:05:12;;;;;;;23.20;19.37;;;10.90;22.20;;;;;;5044235;28;20211;-59
2022/05/07 03:07:39;;;;;;;21.87;19.33;;;10.90;5.10;;;;;;5044315;28;20306;-58
2022/05/07 03:10:14;;;;;;;22.67;18.67;;;10.90;1.00;;;;;;5020919;28;20213;-59
2022/05/07 03:12:41;;;;;;;23.43;20.20;;;10.90;1.00;;;;;;5041372;28;20297;-60
2022/05/07 03:15:09;;;;;;;26.60;20.87;;;10.90;1.00;;;;;;5042209;28;20223;-59
2022/05/07 03:17:39;;;;;;;23.40;20.00;;;10.80;16.00;;;;;;5045888;28;20195;-59
2022/05/07 03:20:09;;;;;;;22.63;19.57;;;10.80;31.20;;;;;;5044112;28;20191;-59
2022/05/07 03:22:41;;;;;;;25.00;20.60;;;10.80;15.20;;;;;;5044326;28;20203;-59
2022/05/07 03:25:08;;;;;;;23.27;20.77;;;10.40;99.90;;;;;;5047968;28;20760;-59
2022/05/07 03:27:38;;;;;;;26.57;21.97;;;10.30;99.90;;;;;;5033121;28;20794;-60
2022/05/07 03:30:11;;;;;;;28.93;21.67;;;10.00;99.90;;;;;;5050804;28;20270;-59
2022/05/07 03:32:57;;;;;;;25.50;20.97;;;9.90;99.90;;;;;;5045893;28;20278;-59
2022/05/07 03:35:25;;;;;;;25.57;21.17;;;10.20;99.90;;;;;;5028620;28;20215;-58
2022/05/07 03:37:54;;;;;;;25.67;21.53;;;10.30;99.90;;;;;;5024508;28;20188;-57
2022/05/07 03:40:21;;;;;;;25.10;22.07;;;10.40;99.90;;;;;;5049821;28;20253;-59
2022/05/07 03:42:48;;;;;;;26.60;22.07;;;10.40;99.90;;;;;;5028841;28;20734;-60
2022/05/07 03:45:17;;;;;;;24.03;21.43;;;10.40;99.90;;;;;;5045760;28;20207;-59
2022/05/07 03:47:48;;;;;;;25.07;22.37;;;10.40;99.90;;;;;;5029547;28;20199;-59
2022/05/07 03:50:18;;;;;;;24.87;21.97;;;10.50;99.90;;;;;;5027309;28;20317;-58
2022/05/07 03:55:31;;;;;;;23.70;20.93;;;10.60;99.90;;;;;;5029063;28;20241;-59
2022/05/07 03:57:59;;;;;;;25.40;20.60;;;10.60;99.90;;;;;;5032280;28;20219;-59
2022/05/07 04:00:32;;;;;;;24.30;20.80;;;10.60;99.90;;;;;;5032930;28;20199;-58
2022/05/07 04:02:59;;;;;;;25.50;20.30;;;10.70;99.90;;;;;;5032040;28;20205;-59
2022/05/07 04:05:33;;;;;;;26.97;21.33;;;10.80;93.20;;;;;;5049896;28;20235;-60
2022/05/07 04:08:11;;;;;;;24.00;20.23;;;10.90;70.50;;;;;;5026885;28;20199;-60
2022/05/07 04:10:42;;;;;;;25.07;20.67;;;10.90;48.00;;;;;;5027316;28;20359;-61
2022/05/07 04:13:14;;;;;;;27.63;20.50;;;11.00;26.50;;;;;;5031024;28;20198;-61
2022/05/07 04:15:45;;;;;;;28.00;21.07;;;11.20;14.10;;;;;;5033010;28;20208;-59
2022/05/07 04:18:13;;;;;;;27.17;20.43;;;11.30;1.00;;;;;;5008570;28;20283;-60
2022/05/07 04:20:46;;;;;;;26.87;20.33;;;11.50;1.00;;;;;;5035879;28;20226;-63
2022/05/07 04:23:15;;;;;;;23.10;19.77;;;11.30;1.00;;;;;;5028117;28;20200;-61
2022/05/07 04:25:45;;;;;;;23.07;19.40;;;11.40;1.00;;;;;;5031628;28;20722;-60
2022/05/07 04:28:16;;;;;;;26.83;19.87;;;11.60;1.00;;;;;;5029056;28;20195;-60
2022/05/07 04:30:45;;;;;;;22.43;19.00;;;12.00;1.00;;;;;;5038281;28;20265;-60
2022/05/07 04:33:16;;;;;;;20.50;18.30;;;12.30;1.00;;;;;;5048977;28;20211;-60
2022/05/07 04:35:44;;;;;;;23.73;18.90;;;12.70;1.00;;;;;;5049125;28;20211;-62
2022/05/07 04:38:11;;;;;;;22.47;18.93;;;12.70;1.00;;;;;;5029107;28;20318;-61
2022/05/07 04:40:39;;;;;;;22.70;20.40;;;12.80;1.00;;;;;;5028032;28;20207;-59
2022/05/07 04:43:06;;;;;;;23.77;19.50;;;12.40;1.00;;;;;;5013419;28;20203;-60
2022/05/07 04:45:34;;;;;;;23.10;18.87;;;12.80;1.00;;;;;;5029283;28;20239;-59
2022/05/07 04:48:08;;;;;;;21.97;17.90;;;13.30;1.00;;;;;;5040431;28;20262;-59
2022/05/07 04:50:36;;;;;;;21.13;18.83;;;13.90;1.00;;;;;;5026733;28;20202;-60
2022/05/07 04:53:24;;;;;;;19.53;17.43;;;14.10;1.00;;;;;;5028350;28;20306;-59
2022/05/07 04:55:53;;;;;;;23.10;17.57;;;14.80;1.00;;;;;;5033028;28;20222;-60
2022/05/07 04:58:22;;;;;;;19.77;16.10;;;15.30;1.00;;;;;;5017859;28;20227;-60
2022/05/07 05:00:50;;;;;;;19.50;17.07;;;15.40;1.00;;;;;;5049306;28;20199;-59
2022/05/07 05:03:20;;;;;;;19.43;16.83;;;15.40;1.00;;;;;;5035473;28;21080;-58
2022/05/07 05:06:10;;;;;;;19.60;16.93;;;15.70;1.00;;;;;;5033663;28;20234;-58
2022/05/07 05:08:59;;;;;;;21.13;17.53;;;15.20;1.00;;;;;;5050587;28;20615;-59
2022/05/07 05:11:26;;;;;;;20.23;18.13;;;15.30;1.00;;;;;;5030769;28;20188;-60
2022/05/07 05:13:56;;;;;;;21.33;19.00;;;15.00;1.00;;;;;;5048408;28;20191;-59
2022/05/07 05:16:24;;;;;;;22.73;19.33;;;14.10;1.00;;;;;;5026945;28;20203;-63
2022/05/07 05:19:00;;;;;;;21.77;19.47;;;13.40;1.00;;;;;;5028159;28;20203;-58
2022/05/07 05:21:27;;;;;;;22.90;19.90;;;13.20;1.00;;;;;;5044508;28;20195;-59
2022/05/07 05:24:07;;;;;;;24.50;19.80;;;12.80;1.00;;;;;;5027823;28;20302;-57
2022/05/07 05:26:36;;;;;;;21.63;19.33;;;13.40;1.00;;;;;;5025274;28;20231;-58
2022/05/07 05:29:08;;;;;;;21.13;18.17;;;14.00;1.00;;;;;;5030486;28;20298;-58
2022/05/07 05:31:35;;;;;;;19.97;17.77;;;15.00;1.00;;;;;;5048175;28;20440;-59
2022/05/07 05:34:11;;;;;;;19.80;17.47;;;15.90;1.00;;;;;;5045566;28;20279;-57
2022/05/07 05:36:46;;;;;;;21.43;17.20;;;16.60;1.00;;;;;;5022238;28;20191;-58
2022/05/07 05:39:14;;;;;;;18.80;16.80;;;16.90;1.00;;;;;;5031711;28;20224;-60
2022/05/07 05:41:44;;;;;;;18.33;16.33;;;17.20;1.00;;;;;;5046638;28;20229;-59
2022/05/07 05:44:12;;;;;;;20.00;16.40;;;17.30;1.00;;;;;;5030612;28;20680;-59
2022/05/07 05:46:39;;;;;;;18.38;16.40;;;17.60;99.90;;;;;;5048554;28;20223;-60
2022/05/07 05:49:08;;;;;;;20.13;17.70;;;17.70;99.90;;;;;;5038700;28;20192;-58
2022/05/07 05:51:37;;;;;;;20.77;17.55;;;16.80;99.90;;;;;;5023396;28;20207;-59
2022/05/07 05:54:04;;;;;;;19.50;17.40;;;16.90;99.90;;;;;;5026664;28;20596;-58
2022/05/07 05:56:31;;;;;;;20.73;17.15;;;17.20;99.90;;;;;;5048687;28;20316;-59
2022/05/07 05:59:00;;;;;;;19.00;17.00;;;17.70;99.90;;;;;;5050167;28;20218;-60
2022/05/07 06:01:40;;;;;;;19.08;17.23;;;17.80;99.90;;;;;;5023882;28;20235;-60
2022/05/07 06:04:15;;;;;;;20.10;18.00;;;17.70;99.90;;;;;;5027022;28;20295;-60
2022/05/07 06:06:44;;;;;;;20.25;17.55;;;17.60;99.90;;;;;;5030457;28;20659;-60
2022/05/07 06:09:12;;;;;;;20.80;18.60;;;17.60;99.90;;;;;;5028716;28;20187;-60
2022/05/07 06:11:41;;;;;;;21.05;18.33;;;17.50;99.90;;;;;;5030491;28;20194;-60
2022/05/07 06:14:08;;;;;;;19.35;17.33;;;17.80;99.90;;;;;;5025668;28;20203;-60
2022/05/07 06:16:35;;;;;;;21.30;16.40;;;18.10;99.90;;;;;;5025329;28;20204;-60
2022/05/07 06:19:09;;;;;;;18.50;15.73;;;18.80;99.90;;;;;;5016901;28;20203;-60
2022/05/07 06:21:37;;;;;;;19.63;15.82;;;19.00;99.90;;;;;;5049616;28;20210;-60
2022/05/07 06:29:38;;;;;;;17.15;15.32;;;21.10;99.90;;;;;;5032180;28;20192;-59
2022/05/07 06:32:06;;;;;;;20.30;14.43;;;22.20;99.90;;;;;;5037371;28;20192;-60
2022/05/07 06:34:34;;;;;;;16.02;14.38;;;23.80;99.90;;;;;;5004648;28;20221;-58
2022/05/07 06:37:01;;;;;;;17.30;14.57;;;24.40;99.90;;;;;;5025467;28;20207;-59
2022/05/07 06:39:31;;;;;;;16.63;13.95;;;24.70;99.90;;;;;;5045099;28;20993;-61
2022/05/07 06:41:59;;;;;;;16.40;14.57;;;25.30;99.90;;;;;;5019032;28;20261;-59
2022/05/07 06:44:26;;;;;;;16.48;14.77;;;25.20;99.90;;;;;;5032949;28;20203;-60
2022/05/07 06:47:02;;;;;;;13.27;11.65;;;25.70;99.90;;;;;;5028616;28;20219;-60
2022/05/07 06:49:30;;;;;;;14.32;12.82;;;27.10;99.90;;;;;;5023649;28;20188;-61
2022/05/07 06:51:57;;;;;;;10.60;9.07;;;28.10;99.90;;;;;;5044105;28;20311;-60
2022/05/07 06:54:24;;;;;;;14.95;13.32;;;29.20;99.90;;;;;;5047960;28;20231;-59
2022/05/07 06:56:51;;;;;;;14.82;12.52;;;29.60;99.90;;;;;;5031063;28;20233;-59
2022/05/07 06:59:18;;;;;;;13.93;12.55;;;29.70;99.90;;;;;;5047509;28;20315;-60
2022/05/07 07:01:45;;;;;;;16.13;13.55;;;29.20;99.90;;;;;;5046861;28;20803;-60
2022/05/07 07:04:12;;;;;;;16.80;13.50;;;28.40;99.90;;;;;;5042206;28;20198;-60
2022/05/07 07:06:39;;;;;;;14.82;13.10;;;27.30;99.90;;;;;;5017613;28;20210;-59
2022/05/07 07:09:07;;;;;;;10.13;8.98;;;27.00;99.90;;;;;;5030286;28;20204;-61
2022/05/07 07:11:34;;;;;;;15.27;13.65;;;27.90;99.90;;;;;;5041523;28;20214;-60
2022/05/07 07:14:04;;;;;;;10.77;9.38;;;27.00;99.90;;;;;;5046022;28;20285;-60
2022/05/07 07:16:31;;;;;;;15.43;11.40;;;28.10;99.90;;;;;;5044265;28;20184;-59
2022/05/07 07:18:58;;;;;;;15.82;13.70;;;28.60;99.90;;;;;;5041930;28;20241;-58
2022/05/07 07:21:26;;;;;;;14.60;12.85;;;28.80;99.90;;;;;;5040199;28;20192;-59
2022/05/07 07:23:53;;;;;;;15.45;13.48;;;28.10;99.90;;;;;;5027362;28;20196;-60
2022/05/07 07:26:22;;;;;;;17.30;14.82;;;27.40;99.90;;;;;;5046798;28;20231;-58
2022/05/07 07:28:50;;;;;;;16.75;14.48;;;26.20;99.90;;;;;;5019477;28;20195;-58
2022/05/07 07:31:17;;;;;;;16.23;14.52;;;25.80;99.90;;;;;;5041819;28;20249;-59
2022/05/07 07:33:44;;;;;;;16.73;14.98;;;25.30;99.90;;;;;;5030434;28;20777;-59
2022/05/07 07:36:12;;;;;;;16.52;14.13;;;24.60;99.90;;;;;;5046501;28;20334;-59
2022/05/07 07:38:39;;;;;;;16.27;14.25;;;25.10;99.90;;;;;;5026322;28;20273;-59
2022/05/07 07:41:06;;;;;;;15.02;12.88;;;25.80;99.90;;;;;;5046951;28;20226;-59
2022/05/07 07:43:33;;;;;;;14.43;12.90;;;27.80;99.90;;;;;;5039109;28;20196;-59
2022/05/07 07:48:46;;;;;;;15.18;12.00;;;28.60;99.90;;;;;;5041435;28;20197;-58
2022/05/07 07:51:13;;;;;;;16.65;11.55;;;29.00;99.90;;;;;;5043313;28;20242;-59
2022/05/07 07:53:42;;;;;;;15.57;13.13;;;29.40;99.90;;;;;;5042804;28;20309;-58
2022/05/07 07:56:09;;;;;;;14.27;12.80;;;26.20;99.90;;;;;;5019160;28;21942;-59
2022/05/07 07:58:36;;;;;;;12.98;11.70;;;25.60;99.90;;;;;;5044890;28;20204;-57
2022/05/07 08:01:03;;;;;;;17.92;12.52;;;27.80;99.90;;;;;;5041881;28;20203;-57
2022/05/07 08:03:30;;;;;;;15.38;12.27;;;29.20;99.90;;;;;;5021983;28;20302;-58
2022/05/07 08:05:57;;;;;;;10.90;9.73;;;30.20;99.90;;;;;;5041428;28;20267;-57
2022/05/07 08:13:56;;;;;;;12.25;10.50;;;26.30;99.90;;;;;;5046585;28;20289;-58
2022/05/07 08:16:25;;;;;;;13.05;10.05;;;26.80;99.90;;;;;;5026818;28;20195;-58
2022/05/07 08:18:52;;;;;;;13.82;10.77;;;28.30;99.90;;;;;;5028379;28;20209;-57
2022/05/07 08:21:21;;;;;;;14.35;12.15;;;28.80;99.90;;;;;;5046649;28;20196;-59
2022/05/07 08:23:48;;;;;;;14.68;11.20;;;28.20;99.90;;;;;;5042670;28;20929;-57
2022/05/07 08:26:18;;;;;;;13.60;11.20;;;26.70;99.90;;;;;;5047680;28;20570;-57
2022/05/07 08:28:45;;;;;;;17.30;11.73;;;28.90;99.90;;;;;;5046675;28;20192;-58
2022/05/07 08:31:12;;;;;;;15.68;11.65;;;30.40;99.90;;;;;;5049698;28;20195;-57
2022/05/07 08:33:41;;;;;;;16.30;12.32;;;31.00;99.90;;;;;;5048274;28;20219;-58
2022/05/07 08:36:09;;;;;;;17.17;12.60;;;31.30;99.90;;;;;;5046864;28;20830;-59
2022/05/07 08:38:36;;;;;;;15.32;11.52;;;31.50;99.90;;;;;;5031453;28;20610;-57
2022/05/07 08:41:04;;;;;;;14.45;12.38;;;31.20;99.90;;;;;;5027348;28;20257;-58
2022/05/07 08:43:37;;;;;;;16.70;12.77;;;32.10;99.90;;;;;;5048925;28;20290;-59
2022/05/07 08:46:16;;;;;;;16.27;12.20;;;32.50;99.90;;;;;;5049651;28;20273;-59
2022/05/07 08:48:49;;;;;;;21.25;13.07;;;34.00;99.90;;;;;;5049478;28;20199;-58
2022/05/07 08:51:21;;;;;;;16.55;11.68;;;34.50;99.90;;;;;;5027585;28;20188;-58
2022/05/07 08:53:49;;;;;;;19.52;12.88;;;35.10;99.90;;;;;;5048013;28;20231;-59
2022/05/07 08:56:17;;;;;;;16.27;12.45;;;35.90;99.90;;;;;;5050497;28;20219;-58
2022/05/07 08:58:52;;;;;;;20.35;14.73;;;37.00;99.90;;;;;;5033019;28;20302;-59
2022/05/07 09:01:19;;;;;;;19.63;15.45;;;36.70;99.90;;;;;;5044087;28;20195;-57
2022/05/07 09:03:49;;;;;;;19.55;13.90;;;35.00;99.90;;;;;;5047675;28;20187;-58
2022/05/07 09:06:24;;;;;;;17.02;12.70;;;35.80;99.90;;;;;;5042120;28;20590;-58
2022/05/07 09:08:55;;;;;;;19.83;13.05;;;36.60;99.90;;;;;;5047710;28;20230;-58
2022/05/07 09:11:22;;;;;;;19.02;12.93;;;36.60;99.90;;;;;;5050716;28;20273;-58
2022/05/07 09:14:05;;;;;;;16.95;12.85;;;36.60;99.90;;;;;;5049581;28;20454;-59
2022/05/07 09:16:39;;;;;;;18.73;12.90;;;36.40;99.90;;;;;;5049768;28;20203;-59
2022/05/07 09:19:37;;;;;;;19.02;14.77;;;36.20;99.90;;;;;;5051128;28;20187;-59
2022/05/07 09:22:08;;;;;;;21.67;14.00;;;35.00;99.90;;;;;;5033893;28;20213;-58
2022/05/07 09:24:36;;;;;;;19.98;14.30;;;32.20;99.90;;;;;;5051743;28;20206;-58
2022/05/07 09:27:04;;;;;;;19.88;15.40;;;34.00;99.90;;;;;;5045754;28;20204;-58
2022/05/07 09:29:33;;;;;;;21.75;14.70;;;33.10;99.90;;;;;;5047952;28;20191;-57
2022/05/07 09:32:09;;;;;;;19.30;14.23;;;32.00;99.90;;;;;;5046070;28;20204;-58
2022/05/07 09:37:38;;;;;;;17.23;14.15;;;35.40;99.90;;;;;;5048598;28;20602;-58
2022/05/07 09:40:08;;;;;;;16.50;12.82;;;36.40;99.90;;;;;;5030411;28;20261;-58
2022/05/07 09:42:35;;;;;;;17.92;14.52;;;36.60;99.90;;;;;;5048954;28;20196;-58
2022/05/07 09:45:06;;;;;;;26.48;15.80;;;36.60;99.90;;;;;;5047206;28;20199;-58
2022/05/07 09:47:33;;;;;;;18.77;14.25;;;34.70;99.90;;;;;;5048630;28;20893;-57
2022/05/07 09:50:20;;;;;;;23.98;14.88;;;34.50;99.90;;;;;;5033680;28;20249;-58
2022/05/07 09:58:21;;;;;;;18.23;14.90;;;34.10;99.90;;;;;;5027361;28;20555;-57
2022/05/07 10:01:08;;;;;;;19.83;14.45;;;34.50;99.90;;;;;;5011444;28;20619;-58
2022/05/07 10:04:14;;;;;;;20.73;15.52;;;34.00;99.90;;;;;;5027710;28;20280;-58
2022/05/07 10:07:00;;;;;;;20.48;18.00;;;32.90;99.90;;;;;;5029127;28;20208;-58
2022/05/07 10:09:45;;;;;;;17.25;15.27;;;31.20;99.90;;;;;;5028695;28;20207;-57
2022/05/07 10:12:19;;;;;;;21.30;15.98;;;32.90;99.90;;;;;;5031272;28;20250;-58
2022/05/07 10:14:47;;;;;;;20.13;16.88;;;33.50;99.90;;;;;;5031737;28;20192;-57
2022/05/07 10:17:19;;;;;;;23.88;19.15;;;33.20;99.90;;;;;;5030746;28;20209;-58
2022/05/07 10:19:51;;;;;;;22.50;18.58;;;32.50;99.90;;;;;;5014824;28;20195;-58
2022/05/07 10:22:21;;;;;;;26.63;18.67;;;30.70;99.90;;;;;;5023452;28;20188;-57
2022/05/07 10:25:10;;;;;;;25.60;20.90;;;30.10;99.90;;;;;;5008898;28;20215;-57
2022/05/07 10:27:38;;;;;;;26.52;22.45;;;29.60;99.90;;;;;;5025192;28;20212;-58
2022/05/07 10:30:09;;;;;;;29.75;21.02;;;28.50;99.90;;;;;;5023993;28;20193;-56
2022/05/07 10:33:01;;;;;;;28.00;22.58;;;28.50;99.90;;;;;;5032551;28;20192;-57
2022/05/07 10:35:42;;;;;;;30.00;22.55;;;27.10;99.90;;;;;;5029477;28;20658;-56
2022/05/07 10:38:15;;;;;;;27.45;21.75;;;26.70;99.90;;;;;;5030779;28;20711;-57
2022/05/07 10:41:11;;;;;;;31.50;22.70;;;26.50;99.90;;;;;;5029543;28;20200;-57
2022/05/07 10:44:02;;;;;;;25.38;21.60;;;26.00;99.90;;;;;;5006277;28;20732;-57
2022/05/07 10:46:45;;;;;;;22.63;19.83;;;25.70;99.90;;;;;;5013816;28;20229;-57
2022/05/07 10:49:17;;;;;;;25.00;18.20;;;25.60;99.90;;;;;;5014513;28;20205;-56
2022/05/07 10:51:51;;;;;;;20.83;18.02;;;27.00;99.90;;;;;;5018477;28;20242;-56
2022/05/07 10:54:21;;;;;;;22.45;18.25;;;26.70;99.90;;;;;;5015176;28;20227;-57
2022/05/07 10:56:52;;;;;;;19.73;16.38;;;25.60;99.90;;;;;;5040707;28;20698;-57
2022/05/07 10:59:20;;;;;;;19.13;13.60;;;25.40;99.90;;;;;;5042674;28;20199;-57
2022/05/07 11:01:48;;;;;;;15.55;12.82;;;26.10;99.90;;;;;;5042566;28;20294;-58
2022/05/07 11:04:18;;;;;;;17.58;14.50;;;26.10;99.90;;;;;;5036636;28;20200;-59
2022/05/07 11:06:47;;;;;;;19.15;16.48;;;27.60;99.90;;;;;;5023338;28;20223;-57
2022/05/07 11:09:20;;;;;;;18.80;16.73;;;28.50;99.90;;;;;;5046468;28;20187;-57
2022/05/07 11:11:49;;;;;;;22.23;18.52;;;30.80;99.90;;;;;;5047719;28;20241;-58
2022/05/07 11:14:24;;;;;;;24.20;20.55;;;31.80;99.90;;;;;;5045915;28;20598;-57
2022/05/07 11:16:53;;;;;;;20.40;17.45;;;31.70;99.90;;;;;;5043057;28;20253;-56
2022/05/07 11:19:28;;;;;;;21.45;18.25;;;30.50;99.90;;;;;;5039611;28;20506;-57
2022/05/07 11:21:57;;;;;;;27.20;22.30;;;30.00;99.90;;;;;;5042898;28;20207;-56
2022/05/07 11:24:27;;;;;;;23.23;20.52;;;28.90;99.90;;;;;;5044661;28;20547;-57
2022/05/07 11:27:02;;;;;;;22.45;18.75;;;29.20;99.90;;;;;;5027751;28;20211;-57
2022/05/07 11:29:30;;;;;;;18.38;14.75;;;29.20;99.90;;;;;;5049206;28;20219;-57
2022/05/07 11:32:02;;;;;;;17.02;13.52;;;30.80;99.90;;;;;;5023346;28;20196;-59
2022/05/07 11:34:31;;;;;;;15.65;12.07;;;31.60;99.90;;;;;;5043333;28;20249;-58
2022/05/07 11:37:12;;;;;;;15.90;14.25;;;32.80;99.90;;;;;;5044204;28;20202;-58
2022/05/07 11:39:50;;;;;;;15.23;11.88;;;33.00;99.90;;;;;;5048043;28;20233;-58
2022/05/07 11:42:34;;;;;;;15.48;13.73;;;32.70;99.90;;;;;;5036349;28;20214;-57
2022/05/07 11:45:27;;;;;;;16.70;13.95;;;31.80;99.90;;;;;;5040839;28;20203;-58
2022/05/07 11:47:58;;;;;;;15.95;11.23;;;30.40;99.90;;;;;;5044168;28;20203;-57
2022/05/07 11:50:32;;;;;;;11.80;10.60;;;31.20;99.90;;;;;;5046700;28;20199;-58
2022/05/07 11:53:26;;;;;;;14.65;13.20;;;31.60;99.90;;;;;;5047645;28;20251;-57
2022/05/07 11:56:08;;;;;;;13.30;11.27;;;30.10;99.90;;;;;;5046873;28;20196;-57
2022/05/07 11:58:43;;;;;;;13.43;10.90;;;28.30;99.90;;;;;;5024998;28;20754;-57
2022/05/07 12:01:24;;;;;;;16.83;12.57;;;28.00;99.90;;;;;;5039712;28;20222;-57
2022/05/07 12:03:52;;;;;;;19.52;16.15;;;27.50;99.90;;;;;;5041640;28;20203;-57
2022/05/07 12:06:27;;;;;;;14.23;10.77;;;27.60;99.90;;;;;;5046989;28;20196;-57
2022/05/07 12:08:55;;;;;;;16.95;13.50;;;27.50;99.90;;;;;;5044554;28;20259;-58
2022/05/07 12:11:23;;;;;;;15.38;12.23;;;27.50;99.90;;;;;;5046574;28;20210;-57
2022/05/07 12:13:50;;;;;;;20.08;17.40;;;27.60;99.90;;;;;;5048482;28;20199;-61
2022/05/07 12:19:03;;;;;;;14.05;12.43;;;27.50;99.90;;;;;;5032402;28;20199;-59
2022/05/07 12:29:51;;;;;;;20.17;16.13;;;27.00;99.90;;;;;;5040766;28;20243;-57
2022/05/07 12:32:20;;;;;;;16.48;14.75;;;27.00;99.90;;;;;;5041337;28;20200;-57
2022/05/07 12:34:48;;;;;;;17.08;14.40;;;27.20;99.90;;;;;;5044007;28;20191;-58
2022/05/07 12:37:15;;;;;;;17.63;15.75;;;27.00;99.90;;;;;;5029215;28;20199;-58
2022/05/07 12:39:43;;;;;;;22.45;16.65;;;26.90;99.90;;;;;;5044947;28;20711;-57
2022/05/07 12:42:11;;;;;;;18.08;16.27;;;26.50;99.90;;;;;;5042769;28;20237;-58
2022/05/07 12:44:42;;;;;;;20.98;16.13;;;26.30;99.90;;;;;;5043944;28;20195;-58
2022/05/07 12:47:09;;;;;;;19.05;16.05;;;26.50;99.90;;;;;;5045169;28;20212;-58
2022/05/07 12:49:37;;;;;;;16.90;15.05;;;26.60;99.90;;;;;;5038407;28;20270;-58
2022/05/07 12:52:07;;;;;;;19.02;16.23;;;26.70;99.90;;;;;;5044070;28;20196;-57
2022/05/07 12:54:34;;;;;;;16.40;14.70;;;26.70;99.90;;;;;;5042746;28;20219;-58
2022/05/07 12:57:06;;;;;;;18.83;14.48;;;26.80;99.90;;;;;;5043195;28;20274;-57
2022/05/07 12:59:33;;;;;;;15.52;12.70;;;26.80;99.90;;;;;;5037286;28;20368;-59
2022/05/07 13:02:03;;;;;;;14.00;12.40;;;27.00;99.90;;;;;;5042401;28;20234;-57
2022/05/07 13:04:32;;;;;;;15.38;12.93;;;27.20;99.90;;;;;;5008908;28;20257;-57
2022/05/07 13:06:59;;;;;;;17.88;14.82;;;27.30;99.90;;;;;;5045827;28;20561;-58
2022/05/07 13:09:26;;;;;;;19.70;17.20;;;27.70;99.90;;;;;;5042778;28;20254;-57
2022/05/07 13:12:13;;;;;;;17.45;13.10;;;27.50;99.90;;;;;;5047728;28;20196;-57
2022/05/07 13:14:41;;;;;;;14.65;12.80;;;27.60;99.90;;;;;;5036988;28;20216;-58
2022/05/07 13:17:07;;;;;;;14.73;12.77;;;27.60;99.90;;;;;;5043493;28;20720;-58
2022/05/07 13:19:35;;;;;;;19.73;15.30;;;27.50;99.90;;;;;;5045019;28;20203;-58
2022/05/07 13:22:02;;;;;;;18.08;14.27;;;26.50;99.90;;;;;;5037763;28;20258;-58
2022/05/07 13:24:29;;;;;;;14.80;12.13;;;26.70;99.90;;;;;;5024621;28;20204;-58
2022/05/07 13:26:59;;;;;;;12.77;11.57;;;26.90;99.90;;;;;;5046286;28;20695;-58
2022/05/07 13:29:28;;;;;;;15.02;12.82;;;26.80;99.90;;;;;;5001730;28;20867;-58